PWSweather.com
Personal Weather Stations
Station Observations
SBERGENWX
Wood Ridge, NJ 07075

Wood Ridge, NJ 07075

Lat: 40.851667, Lon: -74.088131

Elevation: 177

Station Type: Davis Vantage Vue

http://201weather.com/

High Low Average
Temperature 56.8°F13.8°C 33.0°F0.6°C 47.8°F8.8°C
Dew Point 55.7°F13.2°C 23.6°F-4.7°C 44.5°F6.9°C
Winds 6.9 mph 11.1 kmh Calm Calm 3.0 mph SW4.8 kmh SW
Wind Gusts 19.6 mph31.5 kmh -- 6.0 mph9.7 kmh
Humidity 97% 68% 89%
Pressure 29.92 in1013.2 mb 29.24 in990.2 mb -
Precipitation 0.03 in0.8 mm - -
Hour Temp Dew Point Humidity Winds Wind Gusts Pressure Precip Precip Rate Daily Precip Total
12:00 AM 45.3°F7.4°C 41.1°F5.1°C 85% 1.2 mph S1.9 kmh S 2.3 mph3.7 kmh 29.94 in1013.9 mb - 0.00 in0.0 mm 0.00 in0.0 mm
12:15 AM 46.3°F7.9°C 42.3°F5.7°C 86% 2.3 mph S3.7 kmh S 3.5 mph5.6 kmh 29.94 in1013.9 mb - 0.00 in0.0 mm 0.00 in0.0 mm
12:30 AM 46.6°F8.1°C 42.9°F6.1°C 87% 1.2 mph S1.9 kmh S 3.5 mph5.6 kmh 29.93 in1013.5 mb - 0.00 in0.0 mm 0.00 in0.0 mm
12:45 AM 46.4°F8.0°C 43.3°F6.3°C 89% Calm Calm 1.2 mph1.9 kmh 29.92 in1013.2 mb - 0.00 in0.0 mm 0.00 in0.0 mm
01:00 AM 46.8°F8.2°C 43.8°F6.6°C 89% Calm Calm 2.3 mph3.7 kmh 29.92 in1013.2 mb - 0.00 in0.0 mm 0.00 in0.0 mm
01:15 AM 46.8°F8.2°C 43.7°F6.5°C 89% Calm Calm 1.2 mph1.9 kmh 29.91 in1012.9 mb - 0.00 in0.0 mm 0.00 in0.0 mm
01:30 AM 47.0°F8.3°C 43.9°F6.6°C 89% Calm Calm 2.3 mph3.7 kmh 29.89 in1012.2 mb - 0.00 in0.0 mm 0.00 in0.0 mm
01:45 AM 47.3°F8.5°C 44.5°F6.9°C 90% 1.2 mph S1.9 kmh S 3.5 mph5.6 kmh 29.88 in1011.9 mb - 0.00 in0.0 mm 0.00 in0.0 mm
02:00 AM 48.2°F9.0°C 45.7°F7.6°C 91% Calm Calm -- 29.88 in1011.9 mb - 0.00 in0.0 mm 0.00 in0.0 mm
02:15 AM 45.5°F7.5°C 42.8°F6.0°C 90% Calm Calm -- 29.87 in1011.5 mb - 0.00 in0.0 mm 0.00 in0.0 mm
02:30 AM 43.2°F6.2°C 40.2°F4.6°C 89% Calm Calm -- 29.86 in1011.2 mb - 0.00 in0.0 mm 0.00 in0.0 mm
02:45 AM 46.7°F8.2°C 45.3°F7.4°C 95% 1.2 mph S1.9 kmh S 2.3 mph3.7 kmh 29.85 in1010.8 mb - 0.00 in0.0 mm 0.00 in0.0 mm
03:00 AM 49.6°F9.8°C 47.9°F8.8°C 94% 2.3 mph S3.7 kmh S 3.5 mph5.6 kmh 29.84 in1010.5 mb - 0.00 in0.0 mm 0.00 in0.0 mm
03:15 AM 51.5°F10.8°C 49.6°F9.8°C 93% 3.5 mph SSW5.6 kmh SSW 6.9 mph11.1 kmh 29.83 in1010.2 mb - 0.00 in0.0 mm 0.00 in0.0 mm
03:30 AM 52.9°F11.6°C 50.0°F10.0°C 90% 3.5 mph S5.6 kmh S 4.6 mph7.4 kmh 29.83 in1010.2 mb - 0.00 in0.0 mm 0.00 in0.0 mm
03:45 AM 53.4°F11.9°C 50.2°F10.1°C 89% 3.5 mph S5.6 kmh S 8.1 mph13.0 kmh 29.81 in1009.5 mb - 0.00 in0.0 mm 0.00 in0.0 mm
04:00 AM 53.4°F11.9°C 50.2°F10.1°C 89% 4.6 mph S7.4 kmh S 5.8 mph9.3 kmh 29.80 in1009.1 mb - 0.00 in0.0 mm 0.00 in0.0 mm
04:15 AM 54.1°F12.3°C 50.9°F10.5°C 89% 4.6 mph S7.4 kmh S 5.8 mph9.3 kmh 29.78 in1008.5 mb - 0.00 in0.0 mm 0.00 in0.0 mm
04:30 AM 53.7°F12.1°C 50.2°F10.1°C 88% 1.2 mph SSE1.9 kmh SSE 5.8 mph9.3 kmh 29.77 in1008.1 mb - 0.00 in0.0 mm 0.00 in0.0 mm
04:45 AM 52.6°F11.4°C 49.5°F9.7°C 89% 2.3 mph S3.7 kmh S 3.5 mph5.6 kmh 29.77 in1008.1 mb - 0.00 in0.0 mm 0.00 in0.0 mm
05:00 AM 52.1°F11.2°C 49.3°F9.6°C 90% 3.5 mph SSE5.6 kmh SSE 5.8 mph9.3 kmh 29.75 in1007.5 mb - 0.00 in0.0 mm 0.00 in0.0 mm
05:15 AM 52.0°F11.1°C 49.1°F9.5°C 90% 4.6 mph S7.4 kmh S 8.1 mph13.0 kmh 29.75 in1007.5 mb - 0.00 in0.0 mm 0.00 in0.0 mm
05:30 AM 51.8°F11.0°C 49.2°F9.6°C 91% 3.5 mph S5.6 kmh S 8.1 mph13.0 kmh 29.74 in1007.1 mb - 0.00 in0.0 mm 0.00 in0.0 mm
05:45 AM 51.8°F11.0°C 49.3°F9.6°C 91% 4.6 mph SSE7.4 kmh SSE 8.1 mph13.0 kmh 29.73 in1006.8 mb - 0.00 in0.0 mm 0.00 in0.0 mm
06:00 AM 51.6°F10.9°C 49.6°F9.8°C 93% 4.6 mph SSE7.4 kmh SSE 8.1 mph13.0 kmh 29.71 in1006.1 mb - 0.00 in0.0 mm 0.00 in0.0 mm
06:15 AM 51.3°F10.7°C 49.4°F9.7°C 93% 2.3 mph SSE3.7 kmh SSE 4.6 mph7.4 kmh 29.71 in1006.1 mb - 0.00 in0.0 mm 0.00 in0.0 mm
06:30 AM 51.0°F10.6°C 49.3°F9.6°C 94% 2.3 mph SSE3.7 kmh SSE 5.8 mph9.3 kmh 29.70 in1005.8 mb - 0.00 in0.0 mm 0.00 in0.0 mm
06:45 AM 51.0°F10.6°C 49.6°F9.8°C 95% 3.5 mph S5.6 kmh S 6.9 mph11.1 kmh 29.69 in1005.4 mb - 0.00 in0.0 mm 0.00 in0.0 mm
07:00 AM 51.0°F10.6°C 49.6°F9.8°C 95% 4.6 mph SSE7.4 kmh SSE 6.9 mph11.1 kmh 29.68 in1005.1 mb - 0.00 in0.0 mm 0.00 in0.0 mm
07:15 AM 51.0°F10.6°C 49.6°F9.8°C 95% 1.2 mph S1.9 kmh S 6.9 mph11.1 kmh 29.66 in1004.4 mb - 0.00 in0.0 mm 0.00 in0.0 mm
07:30 AM 51.6°F10.9°C 50.2°F10.1°C 95% 4.6 mph S7.4 kmh S 5.8 mph9.3 kmh 29.65 in1004.1 mb - 0.00 in0.0 mm 0.00 in0.0 mm
07:45 AM 51.7°F10.9°C 50.3°F10.2°C 95% 3.5 mph S5.6 kmh S 6.9 mph11.1 kmh 29.65 in1004.1 mb - 0.00 in0.0 mm 0.00 in0.0 mm
08:00 AM 52.3°F11.3°C 50.9°F10.5°C 95% 3.5 mph SSE5.6 kmh SSE 5.8 mph9.3 kmh 29.64 in1003.7 mb - 0.00 in0.0 mm 0.00 in0.0 mm
08:15 AM 52.6°F11.4°C 51.2°F10.7°C 95% 3.5 mph SSW5.6 kmh SSW 3.5 mph5.6 kmh 29.63 in1003.4 mb - 0.00 in0.0 mm 0.00 in0.0 mm
08:30 AM 52.6°F11.4°C 51.2°F10.7°C 95% Calm Calm -- 29.62 in1003.0 mb - 0.00 in0.0 mm 0.00 in0.0 mm
08:45 AM 52.6°F11.4°C 51.2°F10.7°C 95% Calm Calm -- 29.60 in1002.4 mb - 0.00 in0.0 mm 0.00 in0.0 mm
09:00 AM 52.6°F11.4°C 51.2°F10.7°C 95% Calm Calm -- 29.59 in1002.0 mb - 0.00 in0.0 mm 0.00 in0.0 mm
09:15 AM 52.6°F11.4°C 51.2°F10.7°C 95% Calm Calm -- 29.57 in1001.4 mb - 0.00 in0.0 mm 0.00 in0.0 mm
09:30 AM 52.6°F11.4°C 51.2°F10.7°C 95% Calm Calm -- 29.56 in1001.0 mb - 0.00 in0.0 mm 0.00 in0.0 mm
09:45 AM 52.6°F11.4°C 51.2°F10.7°C 95% Calm Calm -- 29.54 in1000.3 mb - 0.00 in0.0 mm 0.00 in0.0 mm
10:00 AM 52.6°F11.4°C 51.2°F10.7°C 95% Calm Calm -- 29.52 in999.7 mb - 0.00 in0.0 mm 0.00 in0.0 mm
10:15 AM 52.6°F11.4°C 51.2°F10.7°C 95% Calm Calm -- 29.50 in999.0 mb - 0.00 in0.0 mm 0.00 in0.0 mm
10:30 AM 52.6°F11.4°C 51.2°F10.7°C 95% Calm Calm -- 29.49 in998.6 mb - 0.00 in0.0 mm 0.00 in0.0 mm
10:45 AM 52.6°F11.4°C 51.2°F10.7°C 95% Calm Calm -- 29.47 in998.0 mb - 0.00 in0.0 mm 0.00 in0.0 mm
11:00 AM 52.6°F11.4°C 51.2°F10.7°C 95% Calm Calm -- 29.47 in998.0 mb - 0.00 in0.0 mm 0.00 in0.0 mm
11:15 AM 52.6°F11.4°C 51.2°F10.7°C 95% Calm Calm -- 29.46 in997.6 mb - 0.00 in0.0 mm 0.00 in0.0 mm
11:30 AM 52.6°F11.4°C 51.2°F10.7°C 95% Calm Calm -- 29.46 in997.6 mb - 0.00 in0.0 mm 0.00 in0.0 mm
11:45 AM 54.4°F12.4°C 53.3°F11.8°C 96% 6.9 mph SSE11.1 kmh SSE 9.2 mph14.8 kmh 29.45 in997.3 mb - 0.00 in0.0 mm 0.00 in0.0 mm
12:00 PM 54.4°F12.4°C 53.3°F11.8°C 96% 5.8 mph S9.3 kmh S 10.4 mph16.7 kmh 29.44 in997.0 mb - 0.00 in0.0 mm 0.00 in0.0 mm
12:15 PM 54.7°F12.6°C 53.6°F12.0°C 96% 3.5 mph S5.6 kmh S 5.8 mph9.3 kmh 29.42 in996.3 mb - 0.00 in0.0 mm 0.00 in0.0 mm
12:30 PM 54.5°F12.5°C 53.4°F11.9°C 96% 5.8 mph SE9.3 kmh SE 8.1 mph13.0 kmh 29.40 in995.6 mb - 0.00 in0.0 mm 0.00 in0.0 mm
12:45 PM 54.3°F12.4°C 53.2°F11.8°C 96% 3.5 mph S5.6 kmh S 8.1 mph13.0 kmh 29.38 in994.9 mb - 0.00 in0.0 mm 0.00 in0.0 mm
01:00 PM 54.5°F12.5°C 53.4°F11.9°C 96% 3.5 mph S5.6 kmh S 8.1 mph13.0 kmh 29.36 in994.2 mb - 0.00 in0.0 mm 0.00 in0.0 mm
01:15 PM 55.2°F12.9°C 54.4°F12.4°C 97% 4.6 mph S7.4 kmh S 8.1 mph13.0 kmh 29.34 in993.6 mb - 0.00 in0.0 mm 0.00 in0.0 mm
01:30 PM 56.3°F13.5°C 55.5°F13.1°C 97% 5.8 mph S9.3 kmh S 10.4 mph16.7 kmh 29.32 in992.9 mb - 0.00 in0.0 mm 0.00 in0.0 mm
01:45 PM 56.6°F13.7°C 55.5°F13.1°C 96% 6.9 mph S11.1 kmh S 9.2 mph14.8 kmh 29.31 in992.6 mb - 0.00 in0.0 mm 0.00 in0.0 mm
02:00 PM 56.8°F13.8°C 55.7°F13.2°C 96% 6.9 mph SSW11.1 kmh SSW 13.8 mph22.2 kmh 29.28 in991.5 mb - 0.00 in0.0 mm 0.00 in0.0 mm
02:15 PM 56.8°F13.8°C 55.7°F13.2°C 96% 4.6 mph S7.4 kmh S 9.2 mph14.8 kmh 29.27 in991.2 mb - 0.00 in0.0 mm 0.00 in0.0 mm
02:30 PM 56.8°F13.8°C 55.7°F13.2°C 96% 4.6 mph S7.4 kmh S 8.1 mph13.0 kmh 29.25 in990.5 mb - 0.00 in0.0 mm 0.00 in0.0 mm
02:45 PM 56.7°F13.7°C 55.6°F13.1°C 96% 4.6 mph S7.4 kmh S 8.1 mph13.0 kmh 29.24 in990.2 mb - 0.00 in0.0 mm 0.00 in0.0 mm
03:00 PM 56.6°F13.7°C 55.5°F13.1°C 96% 2.3 mph W3.7 kmh W 5.8 mph9.3 kmh 29.26 in990.9 mb - 0.00 in0.0 mm 0.00 in0.0 mm
03:15 PM 54.9°F12.7°C 53.5°F11.9°C 95% 1.2 mph W1.9 kmh W 3.5 mph5.6 kmh 29.26 in990.9 mb - 0.00 in0.0 mm 0.00 in0.0 mm
03:30 PM 54.2°F12.3°C 53.1°F11.7°C 96% Calm Calm 3.5 mph5.6 kmh 29.26 in990.9 mb - 0.00 in0.0 mm 0.00 in0.0 mm
03:45 PM 53.4°F11.9°C 52.0°F11.1°C 95% 2.3 mph N3.7 kmh N 5.8 mph9.3 kmh 29.24 in990.2 mb - 0.00 in0.0 mm 0.00 in0.0 mm
04:00 PM 53.0°F11.7°C 51.6°F10.9°C 95% Calm Calm -- 29.27 in991.2 mb - 0.00 in0.0 mm 0.00 in0.0 mm
04:15 PM 52.7°F11.5°C 51.3°F10.7°C 95% Calm Calm -- 29.30 in992.2 mb - 0.00 in0.0 mm 0.00 in0.0 mm
04:30 PM 52.4°F11.3°C 51.3°F10.7°C 96% Calm Calm 4.6 mph7.4 kmh 29.31 in992.6 mb - 0.01 in0.3 mm 0.01 in0.3 mm
04:45 PM 51.2°F10.7°C 49.5°F9.7°C 94% 3.5 mph WNW5.6 kmh WNW 4.6 mph7.4 kmh 29.35 in993.9 mb - 0.01 in0.3 mm 0.01 in0.3 mm
05:00 PM 48.2°F9.0°C 46.0°F7.8°C 92% 4.6 mph W7.4 kmh W 15.0 mph24.1 kmh 29.39 in995.3 mb - 0.01 in0.3 mm 0.01 in0.3 mm
05:15 PM 46.5°F8.1°C 44.3°F6.8°C 92% 2.3 mph NW3.7 kmh NW 3.5 mph5.6 kmh 29.39 in995.3 mb - 0.01 in0.3 mm 0.01 in0.3 mm
05:30 PM 45.2°F7.3°C 43.0°F6.1°C 92% Calm Calm 1.2 mph1.9 kmh 29.38 in994.9 mb - 0.01 in0.3 mm 0.01 in0.3 mm
05:45 PM 44.7°F7.1°C 42.8°F6.0°C 93% Calm Calm 1.2 mph1.9 kmh 29.36 in994.2 mb - 0.00 in0.0 mm 0.01 in0.3 mm
06:00 PM 44.7°F7.1°C 43.1°F6.2°C 94% Calm Calm 1.2 mph1.9 kmh 29.36 in994.2 mb - 0.00 in0.0 mm 0.01 in0.3 mm
06:15 PM 44.1°F6.7°C 42.5°F5.8°C 94% Calm Calm 3.5 mph5.6 kmh 29.38 in994.9 mb - 0.00 in0.0 mm 0.01 in0.3 mm
06:30 PM 43.8°F6.6°C 41.3°F5.2°C 91% 2.3 mph WNW3.7 kmh WNW 5.8 mph9.3 kmh 29.40 in995.6 mb - 0.00 in0.0 mm 0.01 in0.3 mm
06:45 PM 42.3°F5.7°C 38.7°F3.7°C 87% 4.6 mph W7.4 kmh W 19.6 mph31.5 kmh 29.44 in997.0 mb - 0.01 in0.3 mm 0.02 in0.5 mm
07:00 PM 40.8°F4.9°C 35.4°F1.9°C 81% 3.5 mph NW5.6 kmh NW 11.5 mph18.5 kmh 29.47 in998.0 mb - 0.01 in0.3 mm 0.02 in0.5 mm
07:15 PM 40.4°F4.7°C 35.4°F1.9°C 82% 6.9 mph WNW11.1 kmh WNW 13.8 mph22.2 kmh 29.50 in999.0 mb - 0.01 in0.3 mm 0.02 in0.5 mm
07:30 PM 39.8°F4.3°C 33.5°F0.8°C 78% 2.3 mph WNW3.7 kmh WNW 8.1 mph13.0 kmh 29.51 in999.3 mb - 0.01 in0.3 mm 0.02 in0.5 mm
07:45 PM 38.8°F3.8°C 32.5°F0.3°C 78% 2.3 mph WNW3.7 kmh WNW 11.5 mph18.5 kmh 29.52 in999.7 mb - 0.00 in0.0 mm 0.02 in0.5 mm
08:00 PM 38.3°F3.5°C 31.7°F-0.2°C 77% 4.6 mph W7.4 kmh W 10.4 mph16.7 kmh 29.55 in1000.7 mb - 0.00 in0.0 mm 0.02 in0.5 mm
08:15 PM 37.7°F3.2°C 30.8°F-0.7°C 76% 2.3 mph NW3.7 kmh NW 8.1 mph13.0 kmh 29.56 in1001.0 mb - 0.00 in0.0 mm 0.02 in0.5 mm
08:30 PM 37.6°F3.1°C 30.4°F-0.9°C 75% 3.5 mph NW5.6 kmh NW 9.2 mph14.8 kmh 29.58 in1001.7 mb - 0.01 in0.3 mm 0.03 in0.8 mm
08:45 PM 37.7°F3.2°C 30.5°F-0.8°C 75% 4.6 mph W7.4 kmh W 18.4 mph29.6 kmh 29.60 in1002.4 mb - 0.01 in0.3 mm 0.03 in0.8 mm
09:00 PM 37.6°F3.1°C 30.7°F-0.7°C 76% 4.6 mph WNW7.4 kmh WNW 5.8 mph9.3 kmh 29.62 in1003.0 mb - 0.01 in0.3 mm 0.03 in0.8 mm
09:15 PM 37.7°F3.2°C 30.5°F-0.8°C 75% 1.2 mph NW1.9 kmh NW 3.5 mph5.6 kmh 29.62 in1003.0 mb - 0.01 in0.3 mm 0.03 in0.8 mm
09:30 PM 37.5°F3.1°C 30.3°F-0.9°C 75% 2.3 mph NW3.7 kmh NW 3.5 mph5.6 kmh 29.63 in1003.4 mb - 0.00 in0.0 mm 0.03 in0.8 mm
09:45 PM 37.5°F3.1°C 29.6°F-1.3°C 73% 4.6 mph NW7.4 kmh NW 8.1 mph13.0 kmh 29.64 in1003.7 mb - 0.00 in0.0 mm 0.03 in0.8 mm
10:00 PM 37.4°F3.0°C 29.9°F-1.2°C 74% 1.2 mph W1.9 kmh W 4.6 mph7.4 kmh 29.64 in1003.7 mb - 0.00 in0.0 mm 0.03 in0.8 mm
10:15 PM 37.1°F2.8°C 29.9°F-1.2°C 75% 3.5 mph NW5.6 kmh NW 10.4 mph16.7 kmh 29.66 in1004.4 mb - 0.00 in0.0 mm 0.03 in0.8 mm
10:30 PM 36.5°F2.5°C 29.3°F-1.5°C 75% 3.5 mph W5.6 kmh W 6.9 mph11.1 kmh 29.68 in1005.1 mb - 0.00 in0.0 mm 0.03 in0.8 mm
10:45 PM 35.8°F2.1°C 28.0°F-2.2°C 73% 5.8 mph WNW9.3 kmh WNW 11.5 mph18.5 kmh 29.70 in1005.8 mb - 0.00 in0.0 mm 0.03 in0.8 mm
11:00 PM 35.0°F1.7°C 26.6°F-3.0°C 71% 3.5 mph WNW5.6 kmh WNW 6.9 mph11.1 kmh 29.70 in1005.8 mb - 0.00 in0.0 mm 0.03 in0.8 mm
11:15 PM 34.6°F1.4°C 26.5°F-3.1°C 72% 1.2 mph WNW1.9 kmh WNW 5.8 mph9.3 kmh 29.71 in1006.1 mb - 0.00 in0.0 mm 0.03 in0.8 mm
11:30 PM 34.0°F1.1°C 25.2°F-3.8°C 70% 2.3 mph WNW3.7 kmh WNW 4.6 mph7.4 kmh 29.72 in1006.4 mb - 0.00 in0.0 mm 0.03 in0.8 mm
11:45 PM 33.7°F0.9°C 25.3°F-3.7°C 71% 3.5 mph W5.6 kmh W 6.9 mph11.1 kmh 29.74 in1007.1 mb - 0.00 in0.0 mm 0.03 in0.8 mm